Time;durP1;ratioP1;P1;durP2;ratioP2;P2;SDS_P1;SDS_P2;PMS_P1;PMS_P2;Temp;Humidity;BMP_temperature;BMP_pressure;BME280_temperature;BME280_humidity;BME280_pressure;Samples;Min_cycle;Max_cycle;Signal;HPM_P1;HPM_P2
2022/06/20 00:01:21;;;;;;;4.73;4.33;;;;;;;17.12;78.88;97052.28;6258153;28;20242;-49
2022/06/20 00:04:23;;;;;;;5.00;4.47;;;;;;;17.08;78.98;97050.13;6271073;28;20261;-48
2022/06/20 00:07:25;;;;;;;5.07;4.57;;;;;;;17.01;79.22;97047.34;6280280;28;20229;-50
2022/06/20 00:10:29;;;;;;;4.43;4.03;;;;;;;16.95;79.37;97045.41;6281397;28;20291;-50
2022/06/20 00:13:34;;;;;;;4.90;4.37;;;;;;;16.89;79.41;97041.63;6280545;28;20222;-48
2022/06/20 00:16:36;;;;;;;5.03;4.53;;;;;;;16.88;79.72;97036.44;6282443;28;20320;-49
2022/06/20 00:19:40;;;;;;;4.80;4.40;;;;;;;16.92;79.55;97040.44;6281761;28;20226;-49
2022/06/20 00:22:42;;;;;;;5.67;4.30;;;;;;;16.90;79.56;97043.28;6242578;28;20267;-50
2022/06/20 00:25:44;;;;;;;8.60;5.23;;;;;;;16.85;79.55;97042.16;6270836;28;20233;-48
2022/06/20 00:28:48;;;;;;;4.80;4.30;;;;;;;16.82;79.59;97040.69;6280684;28;20852;-49
2022/06/20 00:31:50;;;;;;;5.27;4.77;;;;;;;16.85;79.80;97043.00;6281846;28;20238;-48
2022/06/20 00:34:52;;;;;;;4.50;4.20;;;;;;;16.86;79.79;97044.66;6276987;28;20737;-49
2022/06/20 00:37:59;;;;;;;5.00;4.50;;;;;;;16.81;79.80;97047.00;6281182;28;20372;-48
2022/06/20 00:41:25;;;;;;;5.20;4.80;;;;;;;16.72;80.00;97040.09;6281125;28;20761;-49
2022/06/20 00:44:40;;;;;;;5.77;4.83;;;;;;;16.65;80.31;97036.47;6280329;28;20794;-49
2022/06/20 00:47:44;;;;;;;5.37;4.83;;;;;;;16.57;80.82;97039.97;6280704;28;20223;-49
2022/06/20 00:50:50;;;;;;;5.00;4.60;;;;;;;16.54;80.92;97032.34;6280742;28;20709;-48
2022/06/20 00:54:23;;;;;;;7.60;5.03;;;;;;;16.50;81.17;97028.38;6280276;28;20317;-51
2022/06/20 00:57:40;;;;;;;6.37;5.00;;;;;;;16.50;81.21;97025.69;6280393;28;20665;-48
2022/06/20 01:05:07;;;;;;;5.20;4.80;;;;;;;16.49;81.20;97008.06;6279544;28;20233;-48
2022/06/20 01:08:18;;;;;;;6.40;5.20;;;;;;;16.49;81.36;97010.72;6280297;28;20227;-49
2022/06/20 01:11:24;;;;;;;6.37;5.33;;;;;;;16.45;81.38;97012.09;6230589;28;20219;-48
2022/06/20 01:14:34;;;;;;;8.00;4.93;;;;;;;16.41;81.52;97013.44;6274307;28;20782;-48
2022/06/20 01:17:38;;;;;;;7.17;5.10;;;;;;;16.36;82.01;97007.00;6281622;28;20597;-49
2022/06/20 01:20:42;;;;;;;4.80;4.40;;;;;;;16.28;82.10;97001.69;6270909;28;20240;-49
2022/06/20 01:24:06;;;;;;;5.73;5.23;;;;;;;16.18;82.16;97000.09;6257629;28;20238;-48
2022/06/20 01:27:26;;;;;;;5.47;4.97;;;;;;;16.16;82.34;96985.31;6279106;28;20231;-48
2022/06/20 01:30:34;;;;;;;5.60;5.10;;;;;;;16.14;82.68;96985.47;6280025;28;20299;-48
2022/06/20 01:33:38;;;;;;;5.80;4.93;;;;;;;16.14;82.99;96992.63;6279847;28;20238;-49
2022/06/20 01:40:10;;;;;;;6.47;5.87;;;;;;;16.12;83.03;96984.00;6279830;28;20260;-49
2022/06/20 01:43:12;;;;;;;7.40;5.67;;;;;;;16.07;83.42;96987.16;6278057;28;20235;-49
2022/06/20 01:46:16;;;;;;;5.77;5.27;;;;;;;16.02;83.48;96989.53;6278873;28;20605;-48
2022/06/20 01:49:23;;;;;;;6.70;5.83;;;;;;;16.00;83.74;96988.03;6278132;28;20233;-49
2022/06/20 01:52:30;;;;;;;6.10;5.50;;;;;;;16.01;83.75;96984.38;6279317;28;20227;-48
2022/06/20 01:55:35;;;;;;;6.00;5.40;;;;;;;16.05;83.65;96991.84;6282813;28;20321;-47
2022/06/20 01:58:42;;;;;;;6.43;5.83;;;;;;;16.04;83.76;96995.50;6279921;28;20241;-49
2022/06/20 02:01:50;;;;;;;6.03;5.53;;;;;;;16.06;83.67;96998.84;6279240;28;20319;-48
2022/06/20 02:04:52;;;;;;;5.97;5.47;;;;;;;16.12;83.72;96997.31;6277576;28;20325;-48
2022/06/20 02:07:58;;;;;;;5.80;5.30;;;;;;;16.15;83.53;96989.81;6279422;28;20227;-48
2022/06/20 02:11:09;;;;;;;6.90;5.40;;;;;;;16.10;83.73;96993.97;6278598;28;20229;-49
2022/06/20 02:14:35;;;;;;;5.93;5.33;;;;;;;16.09;83.77;96994.97;6278128;28;20275;-49
2022/06/20 02:17:40;;;;;;;5.30;4.90;;;;;;;16.08;83.86;96988.00;6277799;28;20230;-48
2022/06/20 02:20:46;;;;;;;6.07;5.57;;;;;;;16.09;83.85;96998.47;6268423;28;20215;-50
2022/06/20 02:23:54;;;;;;;5.40;4.73;;;;;;;16.07;83.80;96995.16;6278364;28;20309;-51
2022/06/20 02:27:02;;;;;;;5.97;5.37;;;;;;;16.06;83.72;96993.50;6277914;28;20271;-48
2022/06/20 02:30:06;;;;;;;5.27;4.87;;;;;;;16.03;83.57;96995.69;6278069;28;20232;-48
2022/06/20 02:33:14;;;;;;;5.97;5.47;;;;;;;15.91;83.86;96995.22;6277162;28;20222;-49
2022/06/20 02:36:17;;;;;;;6.10;5.50;;;;;;;15.85;83.95;96993.28;6261176;28;20226;-48
2022/06/20 02:39:20;;;;;;;6.20;5.63;;;;;;;15.78;84.24;96994.94;6276765;28;20223;-47
2022/06/20 02:42:55;;;;;;;6.70;5.90;;;;;;;15.72;84.33;96999.13;6277640;28;20226;-49
2022/06/20 02:45:58;;;;;;;6.03;5.43;;;;;;;15.71;84.58;96997.47;6281513;28;20241;-48
2022/06/20 02:49:03;;;;;;;6.00;5.43;;;;;;;15.73;84.63;96998.13;6277640;28;20445;-47
2022/06/20 02:52:08;;;;;;;5.97;5.47;;;;;;;15.76;84.44;96997.81;6277634;28;20309;-49
2022/06/20 02:55:13;;;;;;;5.83;5.33;;;;;;;15.78;84.38;97000.25;6277868;28;20269;-49
2022/06/20 02:58:25;;;;;;;6.20;5.60;;;;;;;15.75;84.88;97001.47;6278821;28;20646;-49
2022/06/20 03:01:52;;;;;;;6.70;5.17;;;;;;;15.70;84.37;96998.47;6278383;28;20234;-48
2022/06/20 03:04:55;;;;;;;6.27;5.67;;;;;;;15.63;84.92;97000.16;6200728;28;20236;-49
2022/06/20 03:07:58;;;;;;;6.20;5.60;;;;;;;15.63;84.86;97008.16;6200302;28;20371;-47
2022/06/20 03:11:04;;;;;;;6.47;5.97;;;;;;;15.63;85.00;97005.50;6201030;28;20229;-48
2022/06/20 03:14:11;;;;;;;6.00;5.50;;;;;;;15.61;84.82;97006.66;6200997;28;20239;-47
2022/06/20 03:17:16;;;;;;;6.63;5.97;;;;;;;15.61;85.16;97004.00;6200921;28;20298;-48
2022/06/20 03:20:21;;;;;;;7.03;6.17;;;;;;;15.62;84.78;97008.31;6200133;28;20235;-48
2022/06/20 03:23:29;;;;;;;6.33;5.80;;;;;;;15.62;85.05;96998.50;6180565;28;20224;-50
2022/06/20 03:26:32;;;;;;;6.53;6.03;;;;;;;15.60;85.26;96999.66;6200773;28;20260;-48
2022/06/20 03:29:38;;;;;;;7.00;6.30;;;;;;;15.60;85.55;96997.00;6200321;28;20269;-49
2022/06/20 03:32:40;;;;;;;6.27;5.77;;;;;;;15.62;85.31;96987.88;6203235;28;20247;-48
2022/06/20 03:35:47;;;;;;;6.33;5.73;;;;;;;15.66;85.23;96994.50;6217625;28;20253;-50
2022/06/20 03:38:50;;;;;;;6.27;5.77;;;;;;;15.69;85.14;96990.66;6251355;28;20290;-49
2022/06/20 03:41:52;;;;;;;5.67;5.27;;;;;;;15.69;85.11;96993.31;6257788;28;20275;-49
2022/06/20 03:44:57;;;;;;;6.17;5.60;;;;;;;15.69;85.01;96988.81;6230309;28;20580;-48
2022/06/20 03:48:09;;;;;;;6.00;5.40;;;;;;;15.75;84.87;96990.81;6257241;28;20318;-48
2022/06/20 03:51:21;;;;;;;6.07;5.57;;;;;;;15.78;84.84;96990.47;6257250;28;20223;-47
2022/06/20 03:54:37;;;;;;;6.17;5.57;;;;;;;15.78;84.59;96995.78;6256355;28;20226;-48
2022/06/20 03:57:58;;;;;;;6.10;5.60;;;;;;;15.76;84.72;96996.97;6257646;28;20231;-49
2022/06/20 04:01:03;;;;;;;5.70;5.20;;;;;;;15.75;84.76;96993.47;6257748;28;20235;-48
2022/06/20 04:04:17;;;;;;;6.17;4.80;;;;;;;15.82;84.79;97001.59;6268619;28;20437;-47
2022/06/20 04:07:34;;;;;;;5.07;4.67;;;;;;;15.92;84.32;96998.72;6281470;28;20292;-48
2022/06/20 04:11:00;;;;;;;5.73;5.23;;;;;;;15.99;84.30;97003.19;6281270;28;20392;-51
2022/06/20 04:14:27;;;;;;;6.33;5.73;;;;;;;16.03;84.20;97001.00;6281500;28;20239;-49
2022/06/20 04:21:10;;;;;;;5.27;4.77;;;;;;;16.04;84.02;97006.16;6264806;28;20281;-49
2022/06/20 04:24:19;;;;;;;5.10;4.70;;;;;;;16.09;83.88;97005.63;6277293;28;20590;-47
2022/06/20 04:27:40;;;;;;;5.57;5.07;;;;;;;16.15;83.82;97015.59;6281529;28;20241;-48
2022/06/20 04:30:53;;;;;;;4.67;4.27;;;;;;;16.21;83.46;97015.72;6282200;28;20227;-48
2022/06/20 04:34:15;;;;;;;4.57;4.20;;;;;;;16.17;83.27;97014.41;6280701;28;20228;-48
2022/06/20 04:37:30;;;;;;;5.13;4.73;;;;;;;16.20;83.41;97011.41;6264666;28;20419;-47
2022/06/20 04:40:40;;;;;;;4.67;4.33;;;;;;;16.28;83.37;97015.00;6280414;28;20242;-49
2022/06/20 04:43:53;;;;;;;5.20;4.80;;;;;;;16.35;83.09;97011.50;6278883;28;20296;-48
2022/06/20 04:47:27;;;;;;;4.80;4.40;;;;;;;16.39;83.05;97007.47;6280447;28;20299;-51
2022/06/20 04:50:32;;;;;;;4.90;4.43;;;;;;;16.42;83.08;97004.44;6280588;28;20321;-48
2022/06/20 04:53:40;;;;;;;5.00;4.60;;;;;;;16.46;83.09;97015.59;6280092;28;20238;-48
2022/06/20 04:56:43;;;;;;;4.83;4.37;;;;;;;16.46;82.71;97012.94;6280592;28;20230;-48
2022/06/20 04:59:45;;;;;;;4.73;4.37;;;;;;;16.52;82.65;97017.53;6280358;28;20291;-47
2022/06/20 05:02:51;;;;;;;5.00;4.60;;;;;;;16.63;82.50;97017.16;6279733;28;20331;-49
2022/06/20 05:06:00;;;;;;;4.10;3.80;;;;;;;16.73;82.24;97035.59;6280389;28;20721;-48
2022/06/20 05:09:19;;;;;;;4.23;3.90;;;;;;;16.83;81.92;97033.50;6279890;28;20325;-47
2022/06/20 05:12:40;;;;;;;4.73;4.33;;;;;;;16.92;81.76;97038.59;6279174;28;20239;-47
2022/06/20 05:15:48;;;;;;;5.50;4.30;;;;;;;17.02;81.57;97038.34;6279659;28;20606;-48
2022/06/20 05:18:58;;;;;;;4.83;4.43;;;;;;;17.10;81.40;97032.94;6278691;28;20376;-48
2022/06/20 05:22:08;;;;;;;4.87;4.47;;;;;;;17.13;81.47;97021.09;6249551;28;20242;-48
2022/06/20 05:25:16;;;;;;;3.90;3.50;;;;;;;17.18;81.34;97026.72;6258412;28;20261;-48
2022/06/20 05:28:24;;;;;;;4.30;4.00;;;;;;;17.27;81.20;97026.47;6280267;28;20238;-48
2022/06/20 05:31:35;;;;;;;4.20;3.90;;;;;;;17.34;80.99;97022.06;6284622;28;20233;-48
2022/06/20 05:34:58;;;;;;;5.00;4.27;;;;;;;17.40;80.95;97022.34;6275828;28;20290;-48
2022/06/20 05:38:28;;;;;;;4.40;4.00;;;;;;;17.43;80.91;97027.31;6279915;28;20315;-50
2022/06/20 05:41:30;;;;;;;4.70;4.30;;;;;;;17.49;80.94;97015.91;6279446;28;20305;-50
2022/06/20 05:44:32;;;;;;;3.93;3.63;;;;;;;17.60;80.86;97021.63;6278430;28;20601;-50
2022/06/20 05:47:35;;;;;;;5.07;4.00;;;;;;;17.70;80.61;97016.06;6282544;28;20241;-46
2022/06/20 05:50:44;;;;;;;4.63;4.23;;;;;;;17.78;80.49;97020.47;6279519;28;20317;-49
2022/06/20 05:53:52;;;;;;;5.20;4.67;;;;;;;17.81;80.64;97010.25;6278038;28;20608;-48
2022/06/20 05:57:02;;;;;;;4.63;4.23;;;;;;;17.90;80.76;97003.81;6278544;28;20668;-48
2022/06/20 06:00:16;;;;;;;4.87;4.47;;;;;;;17.99;80.46;97000.03;6260762;28;20283;-49
2022/06/20 06:03:24;;;;;;;4.90;4.43;;;;;;;18.01;81.03;97008.69;6260490;28;20307;-48
2022/06/20 06:06:32;;;;;;;5.00;4.60;;;;;;;18.07;80.99;97007.91;6278633;28;20236;-49
2022/06/20 06:09:52;;;;;;;4.80;4.40;;;;;;;18.20;81.01;97001.91;6277832;28;20245;-49
2022/06/20 06:13:24;;;;;;;4.27;3.97;;;;;;;18.43;80.65;96996.44;6264025;28;20602;-47
2022/06/20 06:17:15;;;;;;;4.83;4.40;;;;;;;18.63;80.37;96999.34;6278089;28;20288;-50
2022/06/20 06:20:37;;;;;;;3.90;3.60;;;;;;;18.83;79.72;96997.69;6150377;28;20223;-51
2022/06/20 06:23:41;;;;;;;5.10;4.60;;;;;;;19.00;79.34;96992.91;6142524;28;20237;-51
2022/06/20 06:26:45;;;;;;;5.73;4.47;;;;;;;19.19;78.69;96986.88;6152627;28;20320;-50
2022/06/20 06:30:00;;;;;;;4.90;4.40;;;;;;;19.46;77.75;96990.59;6152454;28;20642;-49
2022/06/20 06:33:11;;;;;;;4.77;4.30;;;;;;;19.75;77.05;96989.56;6157492;28;20717;-47
2022/06/20 06:36:19;;;;;;;4.37;4.00;;;;;;;20.01;75.95;96986.19;6153348;28;20237;-47
2022/06/20 06:39:34;;;;;;;4.40;4.00;;;;;;;20.33;74.63;96982.00;6152513;28;20372;-48
2022/06/20 06:42:41;;;;;;;4.57;4.17;;;;;;;20.65;73.55;96983.16;6154392;28;20242;-48
2022/06/20 06:45:45;;;;;;;4.07;3.77;;;;;;;20.96;72.60;96975.34;6105154;29;20373;-48
2022/06/20 06:49:05;;;;;;;4.30;3.83;;;;;;;21.31;71.63;96976.00;6147643;28;20255;-46
2022/06/20 06:52:34;;;;;;;5.03;3.80;;;;;;;21.72;69.41;96978.41;6154031;28;20238;-46
2022/06/20 06:55:48;;;;;;;4.27;3.77;;;;;;;22.00;68.78;96978.97;6226333;28;20230;-48
2022/06/20 06:59:04;;;;;;;4.17;3.80;;;;;;;22.36;67.37;96974.91;6277682;28;20636;-46
2022/06/20 07:02:22;;;;;;;4.27;3.97;;;;;;;22.69;66.39;96975.53;6277760;28;20226;-46
2022/06/20 07:05:41;;;;;;;3.90;3.60;;;;;;;22.92;65.45;96972.31;6236661;28;20234;-46
2022/06/20 07:08:50;;;;;;;4.97;3.67;;;;;;;23.16;64.45;96966.09;6256209;28;20238;-48
2022/06/20 07:12:05;;;;;;;3.73;3.30;;;;;;;23.47;63.55;96970.59;6258699;28;20239;-48
2022/06/20 07:15:14;;;;;;;3.40;3.20;;;;;;;23.79;62.29;96962.44;6231067;28;20596;-47
2022/06/20 07:18:46;;;;;;;3.57;3.07;;;;;;;24.05;61.04;96959.44;6257884;28;20226;-46
2022/06/20 07:21:48;;;;;;;3.57;3.27;;;;;;;24.34;60.49;96948.94;6244355;28;20330;-47
2022/06/20 07:24:52;;;;;;;3.27;3.07;;;;;;;24.72;58.43;96946.75;6258353;28;20307;-46
2022/06/20 07:28:06;;;;;;;3.93;3.63;;;;;;;25.04;56.07;96938.41;6258282;28;20286;-46
2022/06/20 07:31:33;;;;;;;3.20;2.90;;;;;;;25.48;55.86;96939.69;6240175;28;20239;-46
2022/06/20 07:34:37;;;;;;;3.80;3.50;;;;;;;25.72;54.89;96950.31;6258456;28;20252;-46
2022/06/20 07:37:59;;;;;;;3.47;3.17;;;;;;;26.09;54.27;96952.69;6262383;28;20419;-46
2022/06/20 07:41:09;;;;;;;3.00;2.80;;;;;;;26.29;53.73;96955.84;6258214;28;20315;-47
2022/06/20 07:44:33;;;;;;;3.00;2.80;;;;;;;26.61;53.62;96953.50;6239013;28;20290;-48
2022/06/20 07:47:41;;;;;;;4.10;2.72;;;;;;;26.83;52.87;96954.44;6257848;28;20674;-46
2022/06/20 07:50:58;;;;;;;5.47;2.65;;;;;;;26.90;52.01;96954.28;6257452;28;20349;-47
2022/06/20 07:54:15;;;;;;;3.75;3.20;;;;;;;27.11;51.87;96948.19;6257638;28;20235;-48
2022/06/20 07:57:26;;;;;;;3.30;3.00;;;;;;;27.21;52.65;96942.09;6239368;28;20212;-47
2022/06/20 08:00:52;;;;;;;3.38;2.70;;;;;;;27.21;52.43;96933.97;6256435;28;20234;-48
2022/06/20 08:04:02;;;;;;;3.40;2.85;;;;;;;27.32;52.09;96933.06;6268157;28;20242;-47
2022/06/20 08:07:17;;;;;;;3.45;3.15;;;;;;;27.40;51.23;96931.81;6280490;28;20231;-54
2022/06/20 08:10:37;;;;;;;4.07;3.70;;;;;;;27.68;49.39;96936.31;6282902;28;20239;-48
2022/06/20 08:13:49;;;;;;;4.22;3.45;;;;;;;27.80;48.72;96937.88;6279589;28;20713;-48
2022/06/20 08:16:56;;;;;;;3.85;3.58;;;;;;;28.07;47.65;96940.66;6281113;28;20234;-46
2022/06/20 08:20:00;;;;;;;5.03;3.65;;;;;;;28.57;48.48;96943.16;6279688;28;20735;-46
2022/06/20 08:23:16;;;;;;;3.50;3.20;;;;;;;28.61;48.38;96938.88;6240676;28;20223;-49
2022/06/20 08:26:28;;;;;;;3.42;3.15;;;;;;;28.90;48.12;96947.63;6281078;28;20792;-46
2022/06/20 08:29:38;;;;;;;3.53;3.22;;;;;;;29.26;47.93;96943.28;6280015;28;20227;-46
2022/06/20 08:32:59;;;;;;;3.60;3.30;;;;;;;29.55;46.97;96942.97;6281928;28;20322;-49
2022/06/20 08:36:19;;;;;;;5.38;3.92;;;;;;;29.86;45.17;96946.72;6260019;28;20350;-47
2022/06/20 08:39:44;;;;;;;4.20;3.90;;;;;;;29.81;46.02;96938.53;6280446;28;20231;-46
2022/06/20 08:42:52;;;;;;;4.25;3.95;;;;;;;29.77;44.80;96935.50;6279651;28;20272;-47
2022/06/20 08:46:42;;;;;;;4.00;3.60;;;;;;;30.24;45.64;96946.41;6281175;28;20347;-46
2022/06/20 08:50:15;;;;;;;4.20;3.90;;;;;;;30.49;44.15;96932.03;6279905;28;20242;-49
2022/06/20 08:54:05;;;;;;;4.43;3.83;;;;;;;30.65;42.37;96924.75;6281038;28;20222;-46
2022/06/20 08:57:17;;;;;;;4.68;4.28;;;;;;;30.25;44.21;96926.25;6279651;28;20214;-44
2022/06/20 09:00:53;;;;;;;6.68;4.97;;;;;;;29.75;44.26;96926.00;6281240;28;20590;-47
2022/06/20 09:04:37;;;;;;;7.72;4.35;;;;;;;29.94;42.41;96925.28;6281119;28;20367;-47
2022/06/20 09:08:01;;;;;;;6.70;4.15;;;;;;;30.57;43.21;96930.72;6155049;28;20308;-46
2022/06/20 09:11:12;;;;;;;4.38;4.00;;;;;;;31.36;43.18;96919.38;6156059;28;20613;-47
2022/06/20 09:14:37;;;;;;;5.00;4.22;;;;;;;31.63;39.09;96928.13;6156199;28;20320;-47
2022/06/20 09:17:45;;;;;;;4.90;4.50;;;;;;;31.09;42.38;96922.38;6104300;28;20320;-46
2022/06/20 09:20:48;;;;;;;3.92;3.63;;;;;;;31.36;41.94;96916.66;6149184;28;20230;-45
2022/06/20 09:24:09;;;;;;;4.25;3.83;;;;;;;31.70;41.39;96915.00;6151622;28;20238;-46
2022/06/20 09:27:28;;;;;;;4.28;3.88;;;;;;;32.45;42.03;96913.06;6154477;28;20308;-44
2022/06/20 09:31:15;;;;;;;6.80;4.45;;;;;;;32.55;37.86;96913.03;6154562;28;20257;-45
2022/06/20 09:34:42;;;;;;;4.50;4.10;;;;;;;32.23;38.07;96918.94;6131657;28;20327;-46
2022/06/20 09:37:51;;;;;;;5.18;4.03;;;;;;;32.35;38.12;96923.25;6154221;28;20336;-46
2022/06/20 09:41:07;;;;;;;5.70;4.07;;;;;;;33.09;38.34;96925.00;6154624;28;20234;-46
2022/06/20 09:44:15;;;;;;;4.93;4.50;;;;;;;33.88;37.90;96945.66;6206011;28;20233;-45
2022/06/20 09:47:39;;;;;;;4.28;3.90;;;;;;;33.63;38.57;97012.41;6277987;28;20245;-46
2022/06/20 09:50:53;;;;;;;4.57;4.18;;;;;;;33.29;39.80;97040.59;6278519;28;20227;-46
2022/06/20 09:54:29;;;;;;;4.93;4.38;;;;;;;33.09;40.39;97029.75;6278532;28;20245;-47
2022/06/20 09:57:40;;;;;;;4.05;3.75;;;;;;;33.47;40.98;97036.34;6277642;28;20364;-47
2022/06/20 10:00:54;;;;;;;4.03;3.55;;;;;;;34.02;39.41;97042.47;6277378;28;20224;-46
2022/06/20 10:04:18;;;;;;;4.80;4.40;;;;;;;34.24;38.93;97031.81;6278387;28;20236;-47
2022/06/20 10:07:33;;;;;;;4.53;4.13;;;;;;;34.80;39.05;97028.47;6279351;28;20348;-44
2022/06/20 10:10:42;;;;;;;5.07;4.68;;;;;;;35.25;38.67;97031.72;6278374;28;20356;-45
2022/06/20 10:14:13;;;;;;;5.50;5.00;;;;;;;35.22;35.94;97032.28;6259966;28;20226;-44
2022/06/20 10:17:39;;;;;;;5.65;5.15;;;;;;;34.18;38.42;97057.66;6278181;28;20621;-46
2022/06/20 10:20:50;;;;;;;15.60;6.30;;;;;;;33.57;37.89;97051.88;6273348;28;20310;-47
2022/06/20 10:24:22;;;;;;;8.23;5.75;;;;;;;33.83;39.37;97045.13;6259014;28;20232;-46
2022/06/20 10:27:52;;;;;;;13.35;6.93;;;;;;;33.57;38.69;97073.75;6277676;28;20321;-47
2022/06/20 10:31:30;;;;;;;14.10;8.25;;;;;;;33.07;39.96;97069.41;6277814;28;20234;-44
2022/06/20 10:35:00;;;;;;;16.60;8.05;;;;;;;32.46;40.72;97078.63;6270038;28;20322;-46
2022/06/20 10:38:06;;;;;;;9.88;7.45;;;;;;;32.43;41.03;97064.75;6262370;28;20260;-45
2022/06/20 10:41:37;;;;;;;16.83;8.57;;;;;;;32.26;40.56;97065.03;6276670;28;20227;-46
2022/06/20 10:45:04;;;;;;;14.15;7.85;;;;;;;32.87;40.98;97068.41;6277372;28;20238;-46
2022/06/20 10:48:36;;;;;;;12.50;8.00;;;;;;;33.32;38.81;97072.84;6277876;28;20720;-49
2022/06/20 10:52:13;;;;;;;16.85;8.15;;;;;;;33.05;39.83;97066.94;6277606;28;20563;-45
2022/06/20 10:55:21;;;;;;;10.60;7.90;;;;;;;33.17;39.09;97102.16;6223467;28;20273;-45
2022/06/20 10:58:32;;;;;;;13.38;8.15;;;;;;;33.22;38.68;97104.88;6274932;28;20280;-47
2022/06/20 11:02:03;;;;;;;11.15;8.38;;;;;;;33.03;38.01;97112.91;6276426;28;20233;-46
2022/06/20 11:05:29;;;;;;;11.45;7.43;;;;;;;33.95;38.75;97102.22;6276161;28;20230;-46
2022/06/20 11:08:55;;;;;;;12.23;7.00;;;;;;;34.48;37.99;97114.09;6276063;28;20305;-45
2022/06/20 11:12:05;;;;;;;18.00;7.43;;;;;;;34.54;35.82;97099.22;6276645;28;20226;-44
2022/06/20 11:15:26;;;;;;;10.43;6.93;;;;;;;34.34;35.46;97091.25;6276569;28;20271;-46
2022/06/20 11:18:31;;;;;;;9.02;6.78;;;;;;;34.50;35.86;97086.41;6276262;28;20661;-45
2022/06/20 11:21:48;;;;;;;14.30;6.35;;;;;;;34.49;36.29;97090.25;6265068;28;20302;-46
2022/06/20 11:25:07;;;;;;;9.88;7.30;;;;;;;33.85;36.31;97072.19;6227482;28;20712;-46
2022/06/20 11:28:29;;;;;;;13.43;6.95;;;;;;;33.89;36.32;97073.25;6275459;28;20648;-45
2022/06/20 11:31:55;;;;;;;14.40;7.22;;;;;;;33.42;36.99;97062.94;6276484;28;20227;-46
2022/06/20 11:35:13;;;;;;;7.90;6.65;;;;;;;32.77;37.85;97059.44;6265038;28;20231;-44
2022/06/20 11:38:52;;;;;;;17.83;7.20;;;;;;;32.03;39.42;97076.53;6274401;28;20736;-45
2022/06/20 11:42:05;;;;;;;13.10;6.75;;;;;;;31.71;39.84;97071.34;6276355;28;20309;-47
2022/06/20 11:45:29;;;;;;;10.70;7.28;;;;;;;31.45;41.15;97068.56;6276648;28;20239;-45
2022/06/20 11:48:46;;;;;;;9.57;6.95;;;;;;;31.27;41.71;97079.19;6276414;28;20281;-47
2022/06/20 11:52:10;;;;;;;10.90;6.10;;;;;;;30.97;43.01;97079.88;6282124;28;20230;-47
2022/06/20 11:55:30;;;;;;;12.35;7.82;;;;;;;30.83;42.37;97097.84;6281563;28;20241;-46
2022/06/20 11:59:02;;;;;;;14.02;7.07;;;;;;;30.54;42.62;97100.16;6281090;28;20300;-45
2022/06/20 12:02:30;;;;;;;12.85;7.07;;;;;;;29.98;45.01;97116.09;6274065;28;20595;-45
2022/06/20 12:05:44;;;;;;;10.57;6.45;;;;;;;30.01;44.72;97127.28;6281057;28;20315;-47
2022/06/20 12:09:16;;;;;;;10.60;6.15;;;;;;;30.45;45.26;97132.47;6281235;28;20235;-44
2022/06/20 12:12:33;;;;;;;10.15;6.60;;;;;;;31.75;42.23;97138.75;6281373;28;20637;-46
2022/06/20 12:15:45;;;;;;;7.45;5.75;;;;;;;32.13;41.07;97142.06;6280498;28;20227;-45
2022/06/20 12:25:47;;;;;;;9.48;5.82;;;;;;;32.55;39.08;97141.72;6279852;28;20626;-47
2022/06/20 12:28:52;;;;;;;9.93;5.50;;;;;;;32.96;38.30;97129.59;6262460;28;20787;-47
2022/06/20 12:31:58;;;;;;;8.45;5.30;;;;;;;33.57;37.36;97131.25;6280270;28;20284;-45
2022/06/20 12:35:16;;;;;;;10.90;5.95;;;;;;;33.70;36.69;97106.78;6274073;28;20603;-45
2022/06/20 12:38:40;;;;;;;9.40;5.80;;;;;;;33.57;36.56;97095.66;6280147;28;20573;-46
2022/06/20 12:41:48;;;;;;;8.05;5.90;;;;;;;33.96;37.26;97099.22;6280128;28;20229;-51
2022/06/20 12:45:05;;;;;;;9.68;5.18;;;;;;;34.26;36.20;97100.88;6258032;28;20239;-46
2022/06/20 12:48:28;;;;;;;6.75;5.32;;;;;;;34.70;35.53;97102.63;6279882;28;20276;-46
2022/06/20 12:51:35;;;;;;;9.73;5.47;;;;;;;34.80;35.28;97108.00;6280354;28;20231;-44
2022/06/20 12:55:13;;;;;;;8.95;5.78;;;;;;;35.28;34.95;97107.97;6280343;28;20676;-45
2022/06/20 12:59:18;;;;;;;9.65;5.90;;;;;;;35.13;33.99;97100.75;6280757;28;20235;-46
2022/06/20 13:02:32;;;;;;;8.43;5.15;;;;;;;35.23;33.74;97103.34;6279321;28;20621;-47
2022/06/20 13:05:37;;;;;;;8.63;5.10;;;;;;;35.15;33.14;97099.31;6254371;28;20305;-48
2022/06/20 13:08:58;;;;;;;7.80;5.13;;;;;;;34.91;33.08;97095.81;6255179;28;20603;-52
2022/06/20 13:12:15;;;;;;;8.70;4.95;;;;;;;35.46;32.50;97087.94;6253854;28;20233;-47
2022/06/20 13:15:29;;;;;;;10.07;4.75;;;;;;;35.40;33.25;97073.47;6254480;28;20226;-46
2022/06/20 13:18:44;;;;;;;7.32;4.47;;;;;;;35.93;32.12;97065.00;6255402;28;20234;-49
2022/06/20 13:21:57;;;;;;;7.15;4.25;;;;;;;36.02;30.75;97060.44;6242072;28;20278;-48
2022/06/20 13:25:17;;;;;;;7.57;4.05;;;;;;;35.77;30.74;97050.69;6248861;28;20301;-48
2022/06/20 13:28:33;;;;;;;7.05;3.83;;;;;;;36.00;31.40;97054.41;6255504;28;20322;-47
2022/06/20 13:31:42;;;;;;;5.75;3.53;;;;;;;36.30;30.01;97050.31;6253850;28;20274;-48
2022/06/20 13:35:13;;;;;;;4.88;3.80;;;;;;;36.37;30.16;97036.16;6246572;28;20239;-49
2022/06/20 13:38:19;;;;;;;8.00;3.78;;;;;;;36.39;30.12;97040.25;6226356;28;20256;-48
2022/06/20 13:41:49;;;;;;;4.90;3.50;;;;;;;37.16;30.04;97040.31;6243410;28;20231;-48
2022/06/20 13:44:59;;;;;;;7.03;3.35;;;;;;;38.02;28.83;97035.50;6247370;28;20385;-48
2022/06/20 13:48:40;;;;;;;5.95;3.17;;;;;;;38.54;27.64;97037.72;6253285;28;20223;-48
2022/06/20 13:52:22;;;;;;;6.38;3.67;;;;;;;38.65;27.92;97045.41;6255998;28;20223;-49
2022/06/20 13:55:49;;;;;;;8.13;3.92;;;;;;;38.74;26.42;97029.69;6253993;28;20239;-52
2022/06/20 13:59:13;;;;;;;6.68;3.55;;;;;;;38.88;25.97;97032.31;6236172;28;20228;-47
2022/06/20 14:02:39;;;;;;;7.63;3.35;;;;;;;39.76;24.55;97026.56;6254235;28;20376;-47
2022/06/20 14:05:43;;;;;;;5.72;3.58;;;;;;;40.50;22.86;97021.50;6236761;28;20228;-46
2022/06/20 14:08:51;;;;;;;7.97;3.53;;;;;;;41.05;23.03;97015.00;6254432;28;20226;-46
2022/06/20 14:11:57;;;;;;;6.15;3.13;;;;;;;42.27;21.56;97027.47;6254055;28;20234;-48
2022/06/20 14:15:08;;;;;;;5.97;3.50;;;;;;;43.54;19.44;97023.59;6212090;28;20374;-49
2022/06/20 14:18:28;;;;;;;6.25;3.70;;;;;;;44.10;19.18;97035.56;6235926;28;20211;-50
2022/06/20 14:21:34;;;;;;;4.85;3.08;;;;;;;44.60;18.27;97022.97;6243138;28;20362;-49
2022/06/20 14:24:38;;;;;;;6.07;3.20;;;;;;;45.50;17.37;97024.72;6253681;28;20718;-49
2022/06/20 14:27:48;;;;;;;5.28;3.00;;;;;;;46.27;17.73;97019.88;6252748;28;20226;-50
2022/06/20 14:30:58;;;;;;;5.35;2.92;;;;;;;46.74;17.25;97021.47;6253682;28;20324;-49
2022/06/20 14:34:13;;;;;;;4.35;2.90;;;;;;;44.99;17.39;97021.94;6249416;28;20246;-49
2022/06/20 14:37:19;;;;;;;8.18;3.35;;;;;;;46.43;16.80;97016.13;6251958;28;20378;-50
2022/06/20 14:40:27;;;;;;;7.60;3.63;;;;;;;46.73;16.68;97008.69;6252748;28;20372;-49
2022/06/20 14:43:46;;;;;;;8.25;3.95;;;;;;;47.03;15.37;97000.38;6252660;28;20380;-49
2022/06/20 14:47:23;;;;;;;5.57;3.70;;;;;;;44.89;18.27;97010.56;6252927;28;20346;-51
2022/06/20 14:50:30;;;;;;;7.20;3.70;;;;;;;45.69;16.46;96999.59;6253782;28;20239;-49
2022/06/20 14:54:14;;;;;;;11.98;3.58;;;;;;;46.79;16.80;96998.00;6252736;28;20229;-48
2022/06/20 14:57:31;;;;;;;10.18;3.90;;;;;;;47.54;15.13;97000.69;6214740;28;20239;-51
2022/06/20 15:01:19;;;;;;;7.57;3.78;;;;;;;48.08;14.78;96991.75;6252108;28;20223;-49
2022/06/20 15:04:31;;;;;;;10.65;4.03;;;;;;;47.61;16.44;96986.00;6263484;28;20269;-50
2022/06/20 15:07:47;;;;;;;6.10;3.47;;;;;;;47.52;15.84;96977.88;6280792;28;20270;-48
2022/06/20 15:11:19;;;;;;;6.65;4.25;;;;;;;46.82;16.09;96972.91;6276213;28;20239;-50
2022/06/20 15:14:27;;;;;;;8.95;4.95;;;;;;;45.40;16.92;96969.50;6266343;28;20237;-45
2022/06/20 15:18:07;;;;;;;8.20;4.22;;;;;;;46.04;16.09;96959.59;6276530;28;20260;-50
2022/06/20 15:21:30;;;;;;;10.10;4.25;;;;;;;46.46;15.66;96951.19;6260251;28;20239;-46
2022/06/20 15:24:48;;;;;;;12.50;4.65;;;;;;;44.49;19.25;96941.97;6245005;28;20429;-47
2022/06/20 15:27:53;;;;;;;6.95;3.75;;;;;;;44.02;20.42;96941.97;6277357;28;20303;-45
2022/06/20 15:31:01;;;;;;;9.68;4.28;;;;;;;44.14;19.10;96937.09;6283121;28;20295;-46
2022/06/20 15:34:40;;;;;;;10.30;4.15;;;;;;;45.02;18.77;96932.06;6278912;28;20212;-49